sensor_id;sensor_type;location;lat;lon;timestamp;temperature;humidity
16313;DHT22;8265;52.622;13.296;2023-08-17T00:04:08;18.00;86.40
16313;DHT22;8265;52.622;13.296;2023-08-17T00:09:29;18.00;86.80
16313;DHT22;8265;52.622;13.296;2023-08-17T00:14:50;17.90;87.10
16313;DHT22;8265;52.622;13.296;2023-08-17T00:20:11;17.80;87.70
16313;DHT22;8265;52.622;13.296;2023-08-17T00:25:32;17.80;87.50
16313;DHT22;8265;52.622;13.296;2023-08-17T00:30:53;17.70;87.90
16313;DHT22;8265;52.622;13.296;2023-08-17T00:36:14;17.60;87.70
16313;DHT22;8265;52.622;13.296;2023-08-17T00:41:35;17.80;87.60
16313;DHT22;8265;52.622;13.296;2023-08-17T00:46:56;17.80;87.20
16313;DHT22;8265;52.622;13.296;2023-08-17T00:52:17;17.80;87.40
16313;DHT22;8265;52.622;13.296;2023-08-17T00:57:38;17.80;87.00
16313;DHT22;8265;52.622;13.296;2023-08-17T01:02:59;17.80;87.40
16313;DHT22;8265;52.622;13.296;2023-08-17T01:08:20;17.70;87.60
16313;DHT22;8265;52.622;13.296;2023-08-17T01:19:02;17.50;88.30
16313;DHT22;8265;52.622;13.296;2023-08-17T01:24:23;17.40;89.00
16313;DHT22;8265;52.622;13.296;2023-08-17T01:29:44;17.30;89.20
16313;DHT22;8265;52.622;13.296;2023-08-17T01:35:09;17.20;89.30
16313;DHT22;8265;52.622;13.296;2023-08-17T01:40:28;17.20;89.10
16313;DHT22;8265;52.622;13.296;2023-08-17T01:45:46;17.20;88.80
16313;DHT22;8265;52.622;13.296;2023-08-17T01:51:08;17.20;89.40
16313;DHT22;8265;52.622;13.296;2023-08-17T01:56:28;17.20;89.00
16313;DHT22;8265;52.622;13.296;2023-08-17T02:01:49;17.20;88.60
16313;DHT22;8265;52.622;13.296;2023-08-17T02:07:10;17.20;88.20
16313;DHT22;8265;52.622;13.296;2023-08-17T02:12:31;17.20;88.70
16313;DHT22;8265;52.622;13.296;2023-08-17T02:17:52;17.20;88.50
16313;DHT22;8265;52.622;13.296;2023-08-17T02:23:13;17.20;88.40
16313;DHT22;8265;52.622;13.296;2023-08-17T02:28:34;17.20;87.70
16313;DHT22;8265;52.622;13.296;2023-08-17T02:33:55;17.20;87.90
16313;DHT22;8265;52.622;13.296;2023-08-17T02:39:16;17.20;87.80
16313;DHT22;8265;52.622;13.296;2023-08-17T02:44:37;17.20;87.00
16313;DHT22;8265;52.622;13.296;2023-08-17T02:49:58;17.20;87.10
16313;DHT22;8265;52.622;13.296;2023-08-17T02:55:19;17.20;86.10
16313;DHT22;8265;52.622;13.296;2023-08-17T03:00:40;17.20;85.80
16313;DHT22;8265;52.622;13.296;2023-08-17T03:06:02;17.10;86.10
16313;DHT22;8265;52.622;13.296;2023-08-17T03:11:22;17.00;85.80
16313;DHT22;8265;52.622;13.296;2023-08-17T03:16:43;17.00;85.60
16313;DHT22;8265;52.622;13.296;2023-08-17T03:22:04;17.00;85.20
16313;DHT22;8265;52.622;13.296;2023-08-17T03:27:25;17.00;85.10
16313;DHT22;8265;52.622;13.296;2023-08-17T03:32:46;16.90;84.50
16313;DHT22;8265;52.622;13.296;2023-08-17T03:38:07;16.90;83.00
16313;DHT22;8265;52.622;13.296;2023-08-17T03:43:28;16.80;84.40
16313;DHT22;8265;52.622;13.296;2023-08-17T03:48:49;16.90;83.00
16313;DHT22;8265;52.622;13.296;2023-08-17T03:54:12;16.90;83.20
16313;DHT22;8265;52.622;13.296;2023-08-17T03:59:31;16.90;83.20
16313;DHT22;8265;52.622;13.296;2023-08-17T04:04:52;16.90;81.40
16313;DHT22;8265;52.622;13.296;2023-08-17T04:10:13;17.00;80.40
16313;DHT22;8265;52.622;13.296;2023-08-17T04:15:34;17.00;80.10
16313;DHT22;8265;52.622;13.296;2023-08-17T04:20:55;16.90;81.50
16313;DHT22;8265;52.622;13.296;2023-08-17T04:26:16;16.80;80.90
16313;DHT22;8265;52.622;13.296;2023-08-17T04:31:37;16.80;80.40
16313;DHT22;8265;52.622;13.296;2023-08-17T04:36:58;16.90;80.40
16313;DHT22;8265;52.622;13.296;2023-08-17T04:42:19;16.90;81.80
16313;DHT22;8265;52.622;13.296;2023-08-17T04:47:40;17.00;80.70
16313;DHT22;8265;52.622;13.296;2023-08-17T04:53:01;17.10;80.30
16313;DHT22;8265;52.622;13.296;2023-08-17T04:58:22;17.20;79.00
16313;DHT22;8265;52.622;13.296;2023-08-17T05:03:43;17.30;79.00
16313;DHT22;8265;52.622;13.296;2023-08-17T05:09:04;17.40;77.90
16313;DHT22;8265;52.622;13.296;2023-08-17T05:14:25;17.60;76.90
16313;DHT22;8265;52.622;13.296;2023-08-17T05:19:46;17.60;78.50
16313;DHT22;8265;52.622;13.296;2023-08-17T05:25:07;17.70;78.10
16313;DHT22;8265;52.622;13.296;2023-08-17T05:30:28;17.70;78.70
16313;DHT22;8265;52.622;13.296;2023-08-17T05:35:53;17.80;79.50
16313;DHT22;8265;52.622;13.296;2023-08-17T05:41:10;17.80;77.20
16313;DHT22;8265;52.622;13.296;2023-08-17T05:46:31;17.80;78.10
16313;DHT22;8265;52.622;13.296;2023-08-17T05:51:52;17.80;77.50
16313;DHT22;8265;52.622;13.296;2023-08-17T05:57:13;17.80;78.40
16313;DHT22;8265;52.622;13.296;2023-08-17T06:02:34;17.80;78.80
16313;DHT22;8265;52.622;13.296;2023-08-17T06:07:56;17.90;78.10
16313;DHT22;8265;52.622;13.296;2023-08-17T06:13:16;18.00;76.80
16313;DHT22;8265;52.622;13.296;2023-08-17T06:18:38;18.00;77.00
16313;DHT22;8265;52.622;13.296;2023-08-17T06:23:58;18.00;78.10
16313;DHT22;8265;52.622;13.296;2023-08-17T06:29:19;18.00;77.40
16313;DHT22;8265;52.622;13.296;2023-08-17T06:34:40;18.20;77.10
16313;DHT22;8265;52.622;13.296;2023-08-17T06:40:04;18.50;76.00
16313;DHT22;8265;52.622;13.296;2023-08-17T06:45:22;18.60;75.00
16313;DHT22;8265;52.622;13.296;2023-08-17T06:50:43;18.80;74.80
16313;DHT22;8265;52.622;13.296;2023-08-17T06:56:04;19.20;74.00
16313;DHT22;8265;52.622;13.296;2023-08-17T07:01:25;19.80;72.70
16313;DHT22;8265;52.622;13.296;2023-08-17T07:06:46;20.30;71.20
16313;DHT22;8265;52.622;13.296;2023-08-17T07:12:07;20.30;70.50
16313;DHT22;8265;52.622;13.296;2023-08-17T07:17:28;20.30;72.20
16313;DHT22;8265;52.622;13.296;2023-08-17T07:22:49;20.30;72.60
16313;DHT22;8265;52.622;13.296;2023-08-17T07:28:10;20.30;71.80
16313;DHT22;8265;52.622;13.296;2023-08-17T07:33:31;20.30;74.40
16313;DHT22;8265;52.622;13.296;2023-08-17T07:38:52;20.70;71.30
16313;DHT22;8265;52.622;13.296;2023-08-17T07:44:13;21.00;68.90
16313;DHT22;8265;52.622;13.296;2023-08-17T07:49:34;21.00;68.40
16313;DHT22;8265;52.622;13.296;2023-08-17T07:54:55;21.00;70.80
16313;DHT22;8265;52.622;13.296;2023-08-17T08:00:16;20.90;72.30
16313;DHT22;8265;52.622;13.296;2023-08-17T08:05:37;20.70;72.70
16313;DHT22;8265;52.622;13.296;2023-08-17T08:10:58;20.50;73.30
16313;DHT22;8265;52.622;13.296;2023-08-17T08:16:19;20.50;72.00
16313;DHT22;8265;52.622;13.296;2023-08-17T08:21:40;21.00;73.40
16313;DHT22;8265;52.622;13.296;2023-08-17T08:27:01;21.10;69.30
16313;DHT22;8265;52.622;13.296;2023-08-17T08:32:22;21.50;70.30
16313;DHT22;8265;52.622;13.296;2023-08-17T08:37:43;22.00;69.30
16313;DHT22;8265;52.622;13.296;2023-08-17T08:43:04;22.10;69.10
16313;DHT22;8265;52.622;13.296;2023-08-17T08:48:26;21.90;71.10
16313;DHT22;8265;52.622;13.296;2023-08-17T08:53:46;21.90;69.20
16313;DHT22;8265;52.622;13.296;2023-08-17T08:59:07;22.20;69.70
16313;DHT22;8265;52.622;13.296;2023-08-17T09:04:28;22.10;70.50
16313;DHT22;8265;52.622;13.296;2023-08-17T09:09:49;21.90;71.80
16313;DHT22;8265;52.622;13.296;2023-08-17T09:15:10;22.00;72.20
16313;DHT22;8265;52.622;13.296;2023-08-17T09:20:37;22.20;72.50
16313;DHT22;8265;52.622;13.296;2023-08-17T09:25:52;22.60;70.70
16313;DHT22;8265;52.622;13.296;2023-08-17T09:31:13;22.90;71.00
16313;DHT22;8265;52.622;13.296;2023-08-17T09:36:36;23.10;69.20
16313;DHT22;8265;52.622;13.296;2023-08-17T09:41:55;23.30;69.60
16313;DHT22;8265;52.622;13.296;2023-08-17T09:47:16;23.80;68.00
16313;DHT22;8265;52.622;13.296;2023-08-17T09:52:38;24.40;66.70
16313;DHT22;8265;52.622;13.296;2023-08-17T09:57:58;24.40;66.90
16313;DHT22;8265;52.622;13.296;2023-08-17T10:03:19;24.40;66.40
16313;DHT22;8265;52.622;13.296;2023-08-17T10:08:42;23.90;67.70
16313;DHT22;8265;52.622;13.296;2023-08-17T10:14:02;23.80;68.00
16313;DHT22;8265;52.622;13.296;2023-08-17T10:19:42;23.50;68.50
16313;DHT22;8265;52.622;13.296;2023-08-17T10:24:43;23.20;69.80
16313;DHT22;8265;52.622;13.296;2023-08-17T10:30:04;23.30;69.10
16313;DHT22;8265;52.622;13.296;2023-08-17T10:35:25;23.40;69.00
16313;DHT22;8265;52.622;13.296;2023-08-17T10:40:46;24.00;68.60
16313;DHT22;8265;52.622;13.296;2023-08-17T10:46:16;24.30;68.10
16313;DHT22;8265;52.622;13.296;2023-08-17T10:51:28;24.40;67.20
16313;DHT22;8265;52.622;13.296;2023-08-17T10:56:49;25.00;65.60
16313;DHT22;8265;52.622;13.296;2023-08-17T11:02:10;25.20;66.10
16313;DHT22;8265;52.622;13.296;2023-08-17T11:07:40;25.10;65.90
16313;DHT22;8265;52.622;13.296;2023-08-17T11:12:55;25.00;65.40
16313;DHT22;8265;52.622;13.296;2023-08-17T11:18:13;25.10;65.70
16313;DHT22;8265;52.622;13.296;2023-08-17T11:23:34;25.00;64.50
16313;DHT22;8265;52.622;13.296;2023-08-17T11:28:55;25.00;66.10
16313;DHT22;8265;52.622;13.296;2023-08-17T11:34:16;24.90;65.30
16313;DHT22;8265;52.622;13.296;2023-08-17T11:39:37;25.00;65.00
16313;DHT22;8265;52.622;13.296;2023-08-17T11:44:58;24.60;65.70
16313;DHT22;8265;52.622;13.296;2023-08-17T11:50:19;25.00;64.80
16313;DHT22;8265;52.622;13.296;2023-08-17T11:55:40;25.30;65.30
16313;DHT22;8265;52.622;13.296;2023-08-17T12:01:01;25.80;63.70
16313;DHT22;8265;52.622;13.296;2023-08-17T12:06:22;26.10;63.10
16313;DHT22;8265;52.622;13.296;2023-08-17T12:11:44;25.80;63.40
16313;DHT22;8265;52.622;13.296;2023-08-17T12:17:04;25.80;63.70
16313;DHT22;8265;52.622;13.296;2023-08-17T12:22:25;25.80;65.20
16313;DHT22;8265;52.622;13.296;2023-08-17T12:27:46;26.00;64.50
16313;DHT22;8265;52.622;13.296;2023-08-17T12:33:07;26.10;64.30
16313;DHT22;8265;52.622;13.296;2023-08-17T12:38:28;26.50;63.80
16313;DHT22;8265;52.622;13.296;2023-08-17T12:43:49;26.80;62.90
16313;DHT22;8265;52.622;13.296;2023-08-17T12:49:10;27.80;61.80
16313;DHT22;8265;52.622;13.296;2023-08-17T12:54:31;27.30;61.30
16313;DHT22;8265;52.622;13.296;2023-08-17T12:59:52;26.40;64.30
16313;DHT22;8265;52.622;13.296;2023-08-17T13:05:13;26.70;64.30
16313;DHT22;8265;52.622;13.296;2023-08-17T13:10:33;27.10;63.70
16313;DHT22;8265;52.622;13.296;2023-08-17T13:15:54;27.80;62.20
16313;DHT22;8265;52.622;13.296;2023-08-17T13:21:15;27.20;63.00
16313;DHT22;8265;52.622;13.296;2023-08-17T13:26:36;27.30;63.60
16313;DHT22;8265;52.622;13.296;2023-08-17T13:31:57;28.00;62.60
16313;DHT22;8265;52.622;13.296;2023-08-17T13:37:19;27.60;63.00
16313;DHT22;8265;52.622;13.296;2023-08-17T13:42:39;27.80;62.80
16313;DHT22;8265;52.622;13.296;2023-08-17T13:48:00;28.10;61.30
16313;DHT22;8265;52.622;13.296;2023-08-17T13:53:22;28.10;62.50
16313;DHT22;8265;52.622;13.296;2023-08-17T13:58:43;28.00;61.30
16313;DHT22;8265;52.622;13.296;2023-08-17T14:04:04;28.00;61.40
16313;DHT22;8265;52.622;13.296;2023-08-17T14:09:24;27.50;62.20
16313;DHT22;8265;52.622;13.296;2023-08-17T14:14:45;28.30;60.90
16313;DHT22;8265;52.622;13.296;2023-08-17T14:20:07;29.50;58.30
16313;DHT22;8265;52.622;13.296;2023-08-17T14:25:28;29.30;59.40
16313;DHT22;8265;52.622;13.296;2023-08-17T14:30:49;28.60;59.40
16313;DHT22;8265;52.622;13.296;2023-08-17T14:36:10;28.90;59.10
16313;DHT22;8265;52.622;13.296;2023-08-17T14:41:31;28.50;59.00
16313;DHT22;8265;52.622;13.296;2023-08-17T14:46:52;28.80;58.40
16313;DHT22;8265;52.622;13.296;2023-08-17T14:52:13;29.50;58.60
16313;DHT22;8265;52.622;13.296;2023-08-17T14:57:34;29.50;57.10
16313;DHT22;8265;52.622;13.296;2023-08-17T15:02:58;30.00;57.10
16313;DHT22;8265;52.622;13.296;2023-08-17T15:08:16;31.00;54.20
16313;DHT22;8265;52.622;13.296;2023-08-17T15:13:37;30.80;53.70
16313;DHT22;8265;52.622;13.296;2023-08-17T15:18:58;30.00;56.30
16313;DHT22;8265;52.622;13.296;2023-08-17T15:24:19;30.00;55.00
16313;DHT22;8265;52.622;13.296;2023-08-17T15:29:40;30.20;54.50
16313;DHT22;8265;52.622;13.296;2023-08-17T15:35:01;30.30;55.10
16313;DHT22;8265;52.622;13.296;2023-08-17T15:40:24;30.10;54.80
16313;DHT22;8265;52.622;13.296;2023-08-17T15:45:43;29.40;57.00
16313;DHT22;8265;52.622;13.296;2023-08-17T15:51:04;29.50;55.40
16313;DHT22;8265;52.622;13.296;2023-08-17T15:56:25;28.80;57.90
16313;DHT22;8265;52.622;13.296;2023-08-17T16:01:46;27.90;62.00
16313;DHT22;8265;52.622;13.296;2023-08-17T16:07:07;27.40;62.30
16313;DHT22;8265;52.622;13.296;2023-08-17T16:12:28;26.70;64.70
16313;DHT22;8265;52.622;13.296;2023-08-17T16:17:49;26.50;63.30
16313;DHT22;8265;52.622;13.296;2023-08-17T16:23:10;26.50;65.70
16313;DHT22;8265;52.622;13.296;2023-08-17T16:28:31;26.40;65.70
16313;DHT22;8265;52.622;13.296;2023-08-17T16:33:52;26.20;66.20
16313;DHT22;8265;52.622;13.296;2023-08-17T16:39:13;26.00;66.80
16313;DHT22;8265;52.622;13.296;2023-08-17T16:44:34;25.60;66.70
16313;DHT22;8265;52.622;13.296;2023-08-17T16:49:55;25.30;67.90
16313;DHT22;8265;52.622;13.296;2023-08-17T16:55:16;25.00;69.10
16313;DHT22;8265;52.622;13.296;2023-08-17T17:00:37;24.80;69.90
16313;DHT22;8265;52.622;13.296;2023-08-17T17:05:57;24.70;71.10
16313;DHT22;8265;52.622;13.296;2023-08-17T17:11:19;24.60;71.50
16313;DHT22;8265;52.622;13.296;2023-08-17T17:16:39;24.50;71.60
16313;DHT22;8265;52.622;13.296;2023-08-17T17:22:00;24.50;71.70
16313;DHT22;8265;52.622;13.296;2023-08-17T17:27:21;24.40;71.40
16313;DHT22;8265;52.622;13.296;2023-08-17T17:32:42;24.30;72.40
16313;DHT22;8265;52.622;13.296;2023-08-17T17:38:03;24.30;71.90
16313;DHT22;8265;52.622;13.296;2023-08-17T17:43:24;24.20;72.70
16313;DHT22;8265;52.622;13.296;2023-08-17T17:48:45;24.10;72.00
16313;DHT22;8265;52.622;13.296;2023-08-17T17:54:06;24.00;71.90
16313;DHT22;8265;52.622;13.296;2023-08-17T17:59:27;24.00;70.80
16313;DHT22;8265;52.622;13.296;2023-08-17T18:04:48;23.90;71.60
16313;DHT22;8265;52.622;13.296;2023-08-17T18:10:09;23.80;70.30
16313;DHT22;8265;52.622;13.296;2023-08-17T18:15:31;23.60;70.00
16313;DHT22;8265;52.622;13.296;2023-08-17T18:20:51;23.60;69.70
16313;DHT22;8265;52.622;13.296;2023-08-17T18:26:12;23.40;71.40
16313;DHT22;8265;52.622;13.296;2023-08-17T18:31:33;23.10;70.80
16313;DHT22;8265;52.622;13.296;2023-08-17T18:36:54;23.00;72.10
16313;DHT22;8265;52.622;13.296;2023-08-17T18:42:15;22.70;72.40
16313;DHT22;8265;52.622;13.296;2023-08-17T18:47:36;22.50;72.10
16313;DHT22;8265;52.622;13.296;2023-08-17T18:52:57;22.40;73.20
16313;DHT22;8265;52.622;13.296;2023-08-17T18:58:18;22.30;73.20
16313;DHT22;8265;52.622;13.296;2023-08-17T19:03:39;22.30;73.20
16313;DHT22;8265;52.622;13.296;2023-08-17T19:09:00;22.10;73.70
16313;DHT22;8265;52.622;13.296;2023-08-17T19:14:21;22.00;74.30
16313;DHT22;8265;52.622;13.296;2023-08-17T19:19:42;21.90;74.30
16313;DHT22;8265;52.622;13.296;2023-08-17T19:25:03;21.70;73.90
16313;DHT22;8265;52.622;13.296;2023-08-17T19:30:24;21.60;74.40
16313;DHT22;8265;52.622;13.296;2023-08-17T19:35:45;21.50;75.00
16313;DHT22;8265;52.622;13.296;2023-08-17T19:41:06;21.30;75.70
16313;DHT22;8265;52.622;13.296;2023-08-17T19:46:27;21.30;74.50
16313;DHT22;8265;52.622;13.296;2023-08-17T19:51:48;21.20;75.50
16313;DHT22;8265;52.622;13.296;2023-08-17T19:57:09;21.20;75.70
16313;DHT22;8265;52.622;13.296;2023-08-17T20:02:30;21.10;75.60
16313;DHT22;8265;52.622;13.296;2023-08-17T20:07:51;21.00;76.10
16313;DHT22;8265;52.622;13.296;2023-08-17T20:13:12;21.00;75.60
16313;DHT22;8265;52.622;13.296;2023-08-17T20:18:33;21.00;76.10
16313;DHT22;8265;52.622;13.296;2023-08-17T20:23:54;20.70;77.10
16313;DHT22;8265;52.622;13.296;2023-08-17T20:29:15;20.50;78.10
16313;DHT22;8265;52.622;13.296;2023-08-17T20:34:36;20.50;77.60
16313;DHT22;8265;52.622;13.296;2023-08-17T20:39:57;20.50;77.70
16313;DHT22;8265;52.622;13.296;2023-08-17T20:45:18;20.50;77.60
16313;DHT22;8265;52.622;13.296;2023-08-17T20:50:39;20.50;77.70
16313;DHT22;8265;52.622;13.296;2023-08-17T20:56:00;20.30;78.40
16313;DHT22;8265;52.622;13.296;2023-08-17T21:01:21;20.20;78.90
16313;DHT22;8265;52.622;13.296;2023-08-17T21:06:41;20.10;79.50
16313;DHT22;8265;52.622;13.296;2023-08-17T21:12:03;20.10;79.20
16313;DHT22;8265;52.622;13.296;2023-08-17T21:17:24;20.00;80.20
16313;DHT22;8265;52.622;13.296;2023-08-17T21:22:47;19.90;80.40
16313;DHT22;8265;52.622;13.296;2023-08-17T21:28:05;20.00;80.50
16313;DHT22;8265;52.622;13.296;2023-08-17T21:33:26;20.00;80.00
16313;DHT22;8265;52.622;13.296;2023-08-17T21:38:47;19.90;80.10
16313;DHT22;8265;52.622;13.296;2023-08-17T21:44:08;19.70;80.90
16313;DHT22;8265;52.622;13.296;2023-08-17T21:49:29;19.70;81.70
16313;DHT22;8265;52.622;13.296;2023-08-17T21:54:50;19.90;80.80
16313;DHT22;8265;52.622;13.296;2023-08-17T22:00:11;19.90;81.50
16313;DHT22;8265;52.622;13.296;2023-08-17T22:05:32;20.00;81.00
16313;DHT22;8265;52.622;13.296;2023-08-17T22:10:53;19.90;80.50
16313;DHT22;8265;52.622;13.296;2023-08-17T22:16:14;19.80;81.30
16313;DHT22;8265;52.622;13.296;2023-08-17T22:21:35;19.70;82.40
16313;DHT22;8265;52.622;13.296;2023-08-17T22:26:56;19.50;82.60
16313;DHT22;8265;52.622;13.296;2023-08-17T22:32:17;19.50;83.70
16313;DHT22;8265;52.622;13.296;2023-08-17T22:37:38;19.50;83.20
16313;DHT22;8265;52.622;13.296;2023-08-17T22:42:59;19.50;82.30
16313;DHT22;8265;52.622;13.296;2023-08-17T22:48:20;19.50;82.90
16313;DHT22;8265;52.622;13.296;2023-08-17T22:53:41;19.50;82.70
16313;DHT22;8265;52.622;13.296;2023-08-17T22:59:03;19.50;83.20
16313;DHT22;8265;52.622;13.296;2023-08-17T23:04:23;19.50;83.20
16313;DHT22;8265;52.622;13.296;2023-08-17T23:09:44;19.50;83.10
16313;DHT22;8265;52.622;13.296;2023-08-17T23:15:05;19.50;83.30
16313;DHT22;8265;52.622;13.296;2023-08-17T23:20:26;19.50;82.90
16313;DHT22;8265;52.622;13.296;2023-08-17T23:25:47;19.70;81.40
16313;DHT22;8265;52.622;13.296;2023-08-17T23:31:08;19.70;81.80
16313;DHT22;8265;52.622;13.296;2023-08-17T23:36:29;19.80;82.00
16313;DHT22;8265;52.622;13.296;2023-08-17T23:41:50;19.80;82.20
16313;DHT22;8265;52.622;13.296;2023-08-17T23:47:11;19.70;85.60
16313;DHT22;8265;52.622;13.296;2023-08-17T23:52:32;19.30;90.50
16313;DHT22;8265;52.622;13.296;2023-08-17T23:57:53;19.00;93.40
